Time;durP1;ratioP1;P1;durP2;ratioP2;P2;SDS_P1;SDS_P2;PMS_P1;PMS_P2;Temp;Humidity;BMP_temperature;BMP_pressure;BME280_temperature;BME280_humidity;BME280_pressure;Samples;Min_cycle;Max_cycle;Signal;HPM_P1;HPM_P2
2022/05/23 00:00:51;;;;;;;7.63;2.10;;;14.70;99.90;;;;;;5084420;28;20052;-49
2022/05/23 00:03:20;;;;;;;6.38;2.20;;;14.70;99.90;;;;;;5049083;28;20084;-47
2022/05/23 00:05:46;;;;;;;6.15;2.28;;;14.70;99.90;;;;;;5049426;28;20051;-46
2022/05/23 00:08:12;;;;;;;4.20;2.40;;;14.70;99.90;;;;;;5084360;28;20560;-48
2022/05/23 00:10:38;;;;;;;4.55;2.10;;;14.70;99.90;;;;;;5084375;28;20113;-59
2022/05/23 00:13:06;;;;;;;6.25;1.90;;;14.60;99.90;;;;;;5049467;28;20059;-59
2022/05/23 00:15:32;;;;;;;5.45;2.20;;;14.60;99.90;;;;;;5049362;28;20060;-59
2022/05/23 00:17:58;;;;;;;4.57;2.22;;;14.60;99.90;;;;;;5049121;28;20048;-57
2022/05/23 00:20:26;;;;;;;6.03;2.28;;;14.50;99.90;;;;;;5084321;28;20385;-51
2022/05/23 00:22:52;;;;;;;4.82;2.22;;;14.40;99.90;;;;;;5048865;28;20060;-59
2022/05/23 00:25:20;;;;;;;4.20;2.03;;;14.40;99.90;;;;;;5049431;28;20059;-59
2022/05/23 00:27:47;;;;;;;6.43;2.30;;;14.40;99.90;;;;;;5049495;28;20052;-59
2022/05/23 00:30:19;;;;;;;5.15;2.22;;;14.30;99.90;;;;;;5084988;28;20060;-60
2022/05/23 00:35:30;;;;;;;7.38;2.22;;;14.20;99.90;;;;;;5049624;28;20069;-59
2022/05/23 00:37:57;;;;;;;6.88;2.20;;;14.10;99.90;;;;;;5083990;28;20048;-58
2022/05/23 00:40:38;;;;;;;5.25;2.10;;;14.10;99.90;;;;;;5049226;28;20072;-59
2022/05/23 00:43:19;;;;;;;4.22;1.70;;;14.10;99.90;;;;;;5069334;28;20787;-58
2022/05/23 00:45:54;;;;;;;4.47;1.98;;;14.10;99.90;;;;;;5087459;28;20497;-59
2022/05/23 00:48:23;;;;;;;4.82;2.17;;;14.00;99.90;;;;;;5069760;28;20056;-58
2022/05/23 00:51:02;;;;;;;5.32;2.05;;;14.00;99.90;;;;;;5069912;28;20056;-59
2022/05/23 00:53:34;;;;;;;5.80;1.98;;;14.00;99.90;;;;;;5087793;28;20055;-58
2022/05/23 00:56:00;;;;;;;;;;;14.00;99.90;;;;;;5070704;28;20459;-52
2022/05/23 00:58:31;;;;;;;4.93;2.08;;;13.90;99.90;;;;;;5087822;28;20434;-58
2022/05/23 01:01:01;;;;;;;8.13;1.83;;;13.90;99.90;;;;;;5069450;28;20109;-59
2022/05/23 01:03:29;;;;;;;4.65;1.90;;;13.90;99.90;;;;;;5052497;28;20186;-59
2022/05/23 01:05:55;;;;;;;5.45;2.22;;;13.90;99.90;;;;;;5052450;28;20397;-58
2022/05/23 01:08:21;;;;;;;4.20;2.03;;;13.90;99.90;;;;;;5069267;28;20048;-58
2022/05/23 01:10:48;;;;;;;5.28;2.20;;;13.90;99.90;;;;;;5068978;28;20052;-60
2022/05/23 01:13:15;;;;;;;4.47;2.10;;;13.90;99.90;;;;;;5087138;28;20370;-61
2022/05/23 01:15:48;;;;;;;4.72;2.17;;;13.90;99.90;;;;;;5052108;28;20056;-58
2022/05/23 01:18:14;;;;;;;4.72;2.05;;;13.90;99.90;;;;;;5068638;28;20054;-50
2022/05/23 01:20:41;;;;;;;5.65;2.28;;;14.00;99.90;;;;;;5087013;28;20052;-49
2022/05/23 01:23:13;;;;;;;4.65;2.10;;;14.00;99.90;;;;;;5034872;28;20059;-47
2022/05/23 01:26:05;;;;;;;3.67;2.05;;;14.00;99.90;;;;;;5065248;28;20088;-49
2022/05/23 01:28:42;;;;;;;4.72;2.10;;;14.00;99.90;;;;;;5036996;28;20564;-50
2022/05/23 01:31:12;;;;;;;4.82;2.40;;;14.00;99.90;;;;;;5052176;28;20051;-47
2022/05/23 01:33:39;;;;;;;5.63;1.88;;;14.00;99.90;;;;;;5052265;28;20047;-54
2022/05/23 01:36:13;;;;;;;6.35;2.55;;;14.00;99.90;;;;;;5068367;28;20066;-51
2022/05/23 01:38:40;;;;;;;6.07;2.13;;;14.00;99.90;;;;;;5068369;28;20238;-48
2022/05/23 01:41:13;;;;;;;5.78;2.13;;;14.00;99.90;;;;;;5051753;28;20060;-48
2022/05/23 01:43:44;;;;;;;4.88;2.03;;;14.00;99.90;;;;;;5052025;28;20051;-58
2022/05/23 01:46:25;;;;;;;7.85;2.75;;;14.00;99.90;;;;;;5068277;28;20123;-58
2022/05/23 01:49:09;;;;;;;6.97;2.13;;;14.00;99.90;;;;;;5086688;28;20052;-49
2022/05/23 01:51:35;;;;;;;6.32;2.22;;;14.00;99.90;;;;;;5068722;28;20856;-51
2022/05/23 01:54:02;;;;;;;7.00;2.05;;;14.00;99.90;;;;;;5085677;28;20048;-47
2022/05/23 01:56:30;;;;;;;3.35;1.98;;;14.00;99.90;;;;;;5051705;28;20070;-49
2022/05/23 02:01:44;;;;;;;4.50;2.30;;;14.00;99.90;;;;;;5051602;28;20047;-58
2022/05/23 02:04:17;;;;;;;5.20;2.33;;;14.00;99.90;;;;;;5051415;28;20872;-51
2022/05/23 02:06:44;;;;;;;6.35;1.90;;;14.00;99.90;;;;;;5067861;28;20048;-47
2022/05/23 02:09:30;;;;;;;4.13;2.25;;;14.00;99.90;;;;;;5051596;28;20854;-59
2022/05/23 02:12:20;;;;;;;3.03;1.90;;;13.90;99.90;;;;;;5067611;28;20086;-47
2022/05/23 02:14:49;;;;;;;4.20;2.17;;;13.90;99.90;;;;;;5067639;28;20044;-45
2022/05/23 02:17:41;;;;;;;3.30;1.73;;;13.90;99.90;;;;;;5044871;28;20044;-56
2022/05/23 02:20:09;;;;;;;6.95;2.08;;;13.90;99.90;;;;;;5067572;28;20063;-49
2022/05/23 02:22:35;;;;;;;3.80;1.90;;;13.90;99.90;;;;;;5063957;28;20070;-48
2022/05/23 02:25:31;;;;;;;4.57;2.00;;;13.90;99.90;;;;;;5025830;28;20044;-48
2022/05/23 02:27:59;;;;;;;6.20;2.42;;;13.90;99.90;;;;;;5065595;28;20044;-50
2022/05/23 02:30:35;;;;;;;6.75;2.00;;;14.00;99.90;;;;;;5047796;28;20102;-58
2022/05/23 02:33:04;;;;;;;4.63;1.80;;;13.90;99.90;;;;;;5064282;28;20692;-57
2022/05/23 02:35:31;;;;;;;5.07;2.03;;;13.90;99.90;;;;;;5064577;28;20374;-58
2022/05/23 02:37:57;;;;;;;6.10;2.60;;;13.90;99.90;;;;;;5064425;28;20088;-56
2022/05/23 02:40:25;;;;;;;7.18;2.60;;;13.90;99.90;;;;;;5061533;28;20500;-57
2022/05/23 02:42:51;;;;;;;4.50;1.70;;;13.90;99.90;;;;;;5057441;28;20102;-58
2022/05/23 02:45:17;;;;;;;10.18;2.55;;;13.90;99.90;;;;;;5064094;28;20131;-57
2022/05/23 02:47:46;;;;;;;5.65;2.20;;;13.90;99.90;;;;;;5028392;28;20056;-59
2022/05/23 02:50:13;;;;;;;4.45;2.05;;;13.90;99.90;;;;;;5050429;28;20059;-54
2022/05/23 02:52:42;;;;;;;7.45;2.28;;;13.90;99.90;;;;;;5063963;28;20044;-56
2022/05/23 02:55:16;;;;;;;4.68;2.28;;;13.90;99.90;;;;;;5048449;28;20058;-56
2022/05/23 02:57:43;;;;;;;4.63;2.22;;;13.90;99.90;;;;;;5030363;28;20197;-56
2022/05/23 03:00:19;;;;;;;6.65;2.40;;;13.90;99.90;;;;;;5047815;28;20052;-57
2022/05/23 03:03:02;;;;;;;3.45;2.08;;;13.90;99.90;;;;;;5046934;28;20048;-57
2022/05/23 03:05:42;;;;;;;5.45;2.28;;;13.90;99.90;;;;;;5063504;28;20470;-58
2022/05/23 03:08:11;;;;;;;6.40;2.33;;;13.90;99.90;;;;;;5046348;28;20053;-58
2022/05/23 03:10:38;;;;;;;3.95;2.25;;;13.90;99.90;;;;;;5063058;28;20052;-57
2022/05/23 03:13:04;;;;;;;6.75;2.35;;;13.90;99.90;;;;;;5046548;28;20135;-57
2022/05/23 03:15:31;;;;;;;4.47;2.30;;;13.90;99.90;;;;;;5063038;28;20551;-46
2022/05/23 03:17:57;;;;;;;5.40;2.47;;;13.90;99.90;;;;;;5054465;28;20060;-49
2022/05/23 03:20:24;;;;;;;7.80;2.30;;;13.80;99.90;;;;;;5060051;28;20540;-47
2022/05/23 03:28:24;;;;;;;6.93;2.97;;;13.80;99.90;;;;;;5042989;28;20061;-45
2022/05/23 03:30:50;;;;;;;4.53;2.60;;;13.80;99.90;;;;;;5043587;28;20669;-47
2022/05/23 03:33:16;;;;;;;4.32;2.30;;;13.80;99.90;;;;;;5043729;28;20082;-50
2022/05/23 03:35:44;;;;;;;9.18;2.67;;;13.80;99.90;;;;;;5027071;28;20052;-49
2022/05/23 03:38:10;;;;;;;7.60;2.50;;;13.80;99.90;;;;;;5042914;28;20091;-50
2022/05/23 03:40:40;;;;;;;4.32;2.63;;;13.90;99.90;;;;;;5043680;28;20442;-47
2022/05/23 03:43:07;;;;;;;6.63;2.88;;;13.80;99.90;;;;;;5043832;28;20432;-46
2022/05/23 03:45:34;;;;;;;6.22;3.20;;;13.80;99.90;;;;;;5059907;28;20092;-48
2022/05/23 03:48:04;;;;;;;3.92;2.47;;;13.80;99.90;;;;;;5059422;28;20057;-48
2022/05/23 03:50:31;;;;;;;7.55;3.13;;;13.80;99.90;;;;;;5070711;28;20187;-49
2022/05/23 03:53:00;;;;;;;6.43;3.20;;;13.80;99.90;;;;;;5063211;28;20086;-48
2022/05/23 03:55:29;;;;;;;7.05;2.70;;;13.80;99.90;;;;;;5063086;28;20056;-48
2022/05/23 03:58:16;;;;;;;7.70;2.97;;;13.80;99.90;;;;;;5029052;28;20048;-50
2022/05/23 04:00:49;;;;;;;5.22;2.97;;;13.80;99.90;;;;;;5063021;28;20405;-49
2022/05/23 04:03:16;;;;;;;5.15;2.80;;;13.80;99.90;;;;;;5063013;28;20048;-50
2022/05/23 04:05:42;;;;;;;6.93;3.38;;;13.70;99.90;;;;;;5046007;28;20040;-52
2022/05/23 04:08:24;;;;;;;7.15;2.70;;;13.80;99.90;;;;;;5062913;28;20049;-48
2022/05/23 04:10:53;;;;;;;6.00;2.63;;;13.80;99.90;;;;;;5062940;28;20516;-50
2022/05/23 04:13:22;;;;;;;6.32;2.75;;;13.70;99.90;;;;;;5046109;28;20056;-48
2022/05/23 04:15:49;;;;;;;7.30;2.63;;;13.70;99.90;;;;;;5046170;28;20083;-48
2022/05/23 04:18:16;;;;;;;5.15;2.70;;;13.70;99.90;;;;;;5066812;28;20129;-48
2022/05/23 04:20:43;;;;;;;7.35;3.20;;;13.70;99.90;;;;;;5050386;28;20061;-48
2022/05/23 04:23:15;;;;;;;8.68;3.20;;;13.60;99.90;;;;;;5058907;28;20772;-48
2022/05/23 04:25:47;;;;;;;12.40;3.40;;;13.70;99.90;;;;;;5030694;28;20529;-50
2022/05/23 04:28:15;;;;;;;7.13;2.95;;;13.70;99.90;;;;;;5030369;28;20045;-48
2022/05/23 04:30:44;;;;;;;6.10;3.42;;;13.60;99.90;;;;;;5047091;28;20800;-50
2022/05/23 04:35:57;;;;;;;6.30;3.22;;;13.70;99.90;;;;;;5046823;28;20856;-48
2022/05/23 04:38:30;;;;;;;6.90;3.05;;;13.70;99.90;;;;;;5031061;28;20079;-47
2022/05/23 04:40:59;;;;;;;4.70;3.00;;;13.80;99.90;;;;;;5046132;28;20056;-49
2022/05/23 04:43:25;;;;;;;6.93;3.08;;;13.80;99.90;;;;;;5046615;28;20045;-50
2022/05/23 04:45:51;;;;;;;5.80;3.47;;;13.90;99.90;;;;;;5029475;28;20064;-51
2022/05/23 04:51:07;;;;;;;7.95;3.80;;;14.00;99.90;;;;;;5045821;28;20060;-46
2022/05/23 04:53:38;;;;;;;7.00;3.20;;;14.10;99.90;;;;;;5046354;28;20076;-49
2022/05/23 04:56:09;;;;;;;7.72;3.20;;;14.20;99.90;;;;;;5029458;28;20140;-49
2022/05/23 04:58:35;;;;;;;6.25;3.28;;;14.30;99.90;;;;;;5046215;28;20127;-49
2022/05/23 05:01:03;;;;;;;6.97;3.13;;;14.40;99.90;;;;;;5045616;28;20090;-47
2022/05/23 05:03:30;;;;;;;6.57;2.97;;;14.70;99.90;;;;;;5045774;28;20485;-47
2022/05/23 05:05:57;;;;;;;7.30;3.70;;;14.90;99.90;;;;;;5045422;28;20119;-53
2022/05/23 05:08:26;;;;;;;6.38;3.15;;;15.30;99.90;;;;;;5044884;28;20044;-47
2022/05/23 05:10:54;;;;;;;11.10;3.65;;;15.40;99.90;;;;;;5043517;28;20064;-50
2022/05/23 05:13:20;;;;;;;7.65;3.47;;;15.20;99.90;;;;;;5045207;28;20042;-55
2022/05/23 05:15:46;;;;;;;6.20;3.55;;;15.20;99.90;;;;;;5046471;28;20531;-48
2022/05/23 05:18:21;;;;;;;7.18;3.55;;;15.10;99.90;;;;;;5046497;28;20048;-48
2022/05/23 05:20:56;;;;;;;7.28;3.08;;;15.00;99.90;;;;;;5044973;28;20044;-50
2022/05/23 05:23:48;;;;;;;7.55;3.63;;;15.00;99.90;;;;;;5073572;28;20446;-50
2022/05/23 05:26:30;;;;;;;6.85;3.58;;;14.90;99.90;;;;;;5074147;28;20047;-48
2022/05/23 05:28:56;;;;;;;7.32;3.92;;;14.90;99.90;;;;;;5050520;28;20136;-50
2022/05/23 05:31:31;;;;;;;6.32;3.85;;;15.00;99.90;;;;;;5019002;28;20043;-50
2022/05/23 05:34:05;;;;;;;9.07;4.25;;;15.00;99.90;;;;;;5067608;28;20073;-51
2022/05/23 05:36:37;;;;;;;9.48;4.22;;;14.90;99.90;;;;;;5085695;28;20056;-58
2022/05/23 05:39:06;;;;;;;9.05;4.25;;;14.90;99.90;;;;;;5068189;28;20055;-58
2022/05/23 05:41:41;;;;;;;9.07;4.32;;;14.90;99.90;;;;;;5081792;28;20052;-57
2022/05/23 05:44:12;;;;;;;7.63;4.30;;;15.10;99.90;;;;;;5055064;28;20130;-58
2022/05/23 05:46:46;;;;;;;8.38;3.97;;;15.40;99.90;;;;;;5055778;28;20052;-46
2022/05/23 05:49:24;;;;;;;5.60;3.72;;;15.80;99.90;;;;;;5052241;28;20048;-50
2022/05/23 05:51:55;;;;;;;7.20;4.10;;;16.10;99.90;;;;;;5075418;28;20075;-46
2022/05/23 05:54:30;;;;;;;7.55;4.32;;;16.40;99.90;;;;;;5067882;28;20043;-57
2022/05/23 05:57:07;;;;;;;6.47;4.18;;;16.40;99.90;;;;;;5074154;28;20123;-58
2022/05/23 05:59:34;;;;;;;7.65;3.80;;;16.40;99.90;;;;;;5087643;28;20039;-59
2022/05/23 06:02:01;;;;;;;7.10;4.13;;;16.40;99.90;;;;;;5076062;28;20873;-59
2022/05/23 06:04:30;;;;;;;8.75;4.57;;;16.40;99.90;;;;;;5078889;28;20044;-58
2022/05/23 06:12:55;;;;;;;7.72;4.70;;;17.00;99.90;;;;;;5077776;28;20097;-59
2022/05/23 06:15:45;;;;;;;6.97;4.20;;;17.10;99.90;;;;;;5087908;28;20353;-59
2022/05/23 06:18:12;;;;;;;7.00;4.38;;;17.40;99.90;;;;;;5070691;28;20310;-48
2022/05/23 06:20:40;;;;;;;8.77;4.60;;;17.70;99.90;;;;;;5054441;28;20128;-48
2022/05/23 06:23:07;;;;;;;7.90;4.40;;;18.00;99.90;;;;;;5085331;28;20067;-59
2022/05/23 06:25:37;;;;;;;8.00;4.53;;;18.20;99.90;;;;;;5074899;28;20131;-60
2022/05/23 06:28:07;;;;;;;6.30;4.35;;;18.40;99.90;;;;;;5087530;28;20056;-59
2022/05/23 06:30:34;;;;;;;6.35;4.45;;;18.30;99.90;;;;;;5070676;28;20058;-59
2022/05/23 06:33:06;;;;;;;7.85;4.65;;;18.30;99.90;;;;;;5071713;28;20071;-59
2022/05/23 06:36:03;;;;;;;10.02;4.80;;;18.20;99.90;;;;;;5093789;28;20602;-59
2022/05/23 06:38:30;;;;;;;7.72;4.45;;;18.30;99.90;;;;;;5067140;28;20107;-60
2022/05/23 06:41:07;;;;;;;8.88;4.78;;;18.40;99.90;;;;;;5073050;28;20123;-48
2022/05/23 06:44:04;;;;;;;6.97;4.40;;;18.60;99.90;;;;;;5086741;28;20164;-49
2022/05/23 06:47:09;;;;;;;8.88;5.00;;;18.70;99.90;;;;;;4974776;28;20053;-52
2022/05/23 06:49:53;;;;;;;7.85;4.15;;;18.70;99.90;;;;;;4985030;28;20050;-47
2022/05/23 06:52:38;;;;;;;7.85;4.45;;;18.90;99.90;;;;;;5051933;28;20151;-59
2022/05/23 06:55:24;;;;;;;6.03;4.20;;;19.10;99.90;;;;;;5072406;28;20043;-59
2022/05/23 06:57:51;;;;;;;6.78;4.60;;;19.50;99.90;;;;;;5074526;28;20162;-59
2022/05/23 07:00:18;;;;;;;7.55;3.60;;;19.90;99.90;;;;;;5049116;28;20109;-59
2022/05/23 07:02:56;;;;;;;8.40;4.55;;;20.10;99.90;;;;;;5065998;28;20083;-59
2022/05/23 07:14:10;;;;;;;7.45;4.43;;;20.70;99.90;;;;;;5104676;28;20741;-59
2022/05/23 07:16:36;;;;;;;9.40;3.85;;;20.90;99.90;;;;;;5080630;28;20050;-59
2022/05/23 07:19:04;;;;;;;11.35;3.92;;;21.00;99.90;;;;;;5085946;28;20055;-59
2022/05/23 07:21:37;;;;;;;8.25;4.15;;;21.10;99.90;;;;;;5068782;28;20051;-60
2022/05/23 07:24:14;;;;;;;7.28;3.78;;;21.30;99.90;;;;;;5073466;28;20552;-60
2022/05/23 07:26:48;;;;;;;7.97;4.72;;;21.80;99.90;;;;;;5066257;28;20120;-60
2022/05/23 07:29:15;;;;;;;6.88;4.28;;;22.00;99.90;;;;;;5072946;28;20047;-60
2022/05/23 07:31:44;;;;;;;6.55;4.45;;;22.00;99.90;;;;;;5075564;28;20060;-59
2022/05/23 07:34:10;;;;;;;8.05;3.97;;;21.80;99.90;;;;;;5069110;28;20052;-52
2022/05/23 07:36:37;;;;;;;6.07;3.90;;;21.90;99.90;;;;;;5051126;28;20097;-51
2022/05/23 07:39:08;;;;;;;7.95;4.30;;;21.60;99.90;;;;;;5049514;28;20054;-54
2022/05/23 07:41:47;;;;;;;6.03;4.23;;;21.80;99.90;;;;;;5083015;28;20067;-59
2022/05/23 07:44:16;;;;;;;9.77;4.88;;;22.00;99.90;;;;;;5032448;28;20164;-60
2022/05/23 07:46:43;;;;;;;7.30;4.40;;;22.10;99.90;;;;;;5049173;28;20079;-59
2022/05/23 07:49:11;;;;;;;8.27;4.55;;;22.20;99.90;;;;;;5070059;28;20047;-59
2022/05/23 07:51:40;;;;;;;8.95;4.57;;;22.40;99.90;;;;;;5067497;28;20079;-59
2022/05/23 08:02:42;;;;;;;6.40;3.60;;;23.10;99.90;;;;;;5108438;28;20465;-53
2022/05/23 08:05:18;;;;;;;6.95;3.55;;;23.10;99.90;;;;;;5090323;28;20051;-53
2022/05/23 08:07:49;;;;;;;5.65;3.78;;;23.60;99.90;;;;;;5087135;28;20496;-54
2022/05/23 08:10:17;;;;;;;7.18;4.32;;;23.40;99.90;;;;;;5052755;28;20047;-47
2022/05/23 08:12:52;;;;;;;7.05;3.72;;;23.60;99.90;;;;;;5069976;28;20571;-47
2022/05/23 08:15:24;;;;;;;6.45;4.10;;;23.90;99.90;;;;;;5052716;28;20059;-49
2022/05/23 08:17:56;;;;;;;7.65;4.10;;;23.90;99.90;;;;;;5069147;28;20056;-46
2022/05/23 08:20:37;;;;;;;5.55;3.60;;;24.10;99.90;;;;;;5069243;28;20147;-58
2022/05/23 08:23:04;;;;;;;7.63;4.50;;;23.90;99.90;;;;;;5053417;28;20139;-58
2022/05/23 08:25:38;;;;;;;6.85;4.15;;;23.70;99.90;;;;;;5090009;28;20492;-58
2022/05/23 08:28:05;;;;;;;7.93;4.10;;;23.50;99.90;;;;;;5089875;28;20063;-59
2022/05/23 08:30:32;;;;;;;8.48;4.30;;;23.60;99.90;;;;;;5064222;28;20048;-57
2022/05/23 08:33:12;;;;;;;7.35;4.05;;;23.90;99.90;;;;;;5037734;28;20114;-59
2022/05/23 08:35:39;;;;;;;7.38;4.22;;;23.80;99.90;;;;;;5052635;28;20044;-58
2022/05/23 08:38:06;;;;;;;7.75;4.10;;;24.20;99.90;;;;;;5078606;28;20118;-58
2022/05/23 08:41:10;;;;;;;7.03;3.83;;;24.20;99.90;;;;;;5060947;28;20681;-59
2022/05/23 08:44:07;;;;;;;7.03;4.07;;;24.80;99.90;;;;;;5089147;28;20043;-59
2022/05/23 08:47:11;;;;;;;6.90;3.90;;;25.00;99.90;;;;;;5072633;28;20051;-61
2022/05/23 08:50:03;;;;;;;8.25;3.63;;;24.80;97.70;;;;;;5086053;28;20073;-59
2022/05/23 08:52:55;;;;;;;6.82;3.40;;;25.10;97.70;;;;;;5085935;28;20066;-59
2022/05/23 08:55:52;;;;;;;8.68;3.45;;;25.60;99.20;;;;;;5090247;28;20047;-59
2022/05/23 08:58:53;;;;;;;8.02;3.22;;;26.00;99.90;;;;;;5069803;28;20092;-59
2022/05/23 09:01:31;;;;;;;9.52;3.45;;;26.10;98.30;;;;;;5068742;28;20052;-59
2022/05/23 09:04:08;;;;;;;6.03;3.28;;;26.40;94.20;;;;;;5065246;28;20527;-52
2022/05/23 09:06:42;;;;;;;5.25;2.50;;;26.30;93.60;;;;;;5067349;28;20439;-51
2022/05/23 09:09:10;;;;;;;7.38;3.03;;;26.50;96.10;;;;;;5086088;28;20105;-52
2022/05/23 09:11:39;;;;;;;4.90;2.95;;;26.50;90.10;;;;;;5085670;28;20048;-50
2022/05/23 09:14:07;;;;;;;10.30;5.47;;;26.80;91.50;;;;;;5084397;28;20058;-47
2022/05/23 09:16:43;;;;;;;8.77;5.72;;;26.80;92.50;;;;;;5066727;28;20397;-49
2022/05/23 09:19:35;;;;;;;11.40;7.28;;;26.90;84.00;;;;;;5082079;28;20589;-48
2022/05/23 09:22:14;;;;;;;6.80;4.22;;;27.10;80.10;;;;;;5076831;28;20500;-52
2022/05/23 09:24:45;;;;;;;7.22;4.32;;;27.40;76.00;;;;;;5059102;28;20122;-48
2022/05/23 09:27:20;;;;;;;7.75;3.63;;;27.30;69.40;;;;;;5092806;28;20048;-53
2022/05/23 09:29:52;;;;;;;11.65;8.35;;;27.30;67.90;;;;;;5082016;28;20783;-52
2022/05/23 09:32:23;;;;;;;19.27;10.68;;;27.70;77.60;;;;;;5095100;28;20561;-47
2022/05/23 09:34:54;;;;;;;8.23;4.05;;;27.70;71.70;;;;;;5104070;28;20487;-47
2022/05/23 09:37:28;;;;;;;9.93;8.13;;;27.10;63.70;;;;;;5097118;28;20063;-52
2022/05/23 09:39:58;;;;;;;7.18;3.95;;;26.90;65.40;;;;;;5067260;28;20086;-48
2022/05/23 09:48:20;;;;;;;9.05;5.15;;;25.90;81.30;;;;;;5070421;28;20408;-57
2022/05/23 09:51:01;;;;;;;8.55;3.33;;;25.80;91.90;;;;;;5095587;28;20777;-59
2022/05/23 09:53:31;;;;;;;8.32;5.95;;;25.60;91.50;;;;;;5074746;28;20046;-58
2022/05/23 09:56:22;;;;;;;6.43;2.95;;;25.50;92.40;;;;;;5085879;28;20449;-57
2022/05/23 09:58:48;;;;;;;16.38;13.73;;;25.60;92.20;;;;;;5090882;28;20044;-58
2022/05/23 10:01:25;;;;;;;10.85;6.25;;;25.40;90.90;;;;;;5067007;28;20048;-51
2022/05/23 10:03:51;;;;;;;8.52;4.50;;;25.20;81.10;;;;;;5087813;28;20055;-48
2022/05/23 10:06:18;;;;;;;8.77;5.85;;;25.10;89.20;;;;;;5072696;28;20400;-51
2022/05/23 10:08:47;;;;;;;8.88;7.22;;;25.20;90.20;;;;;;5086665;28;20088;-53
2022/05/23 10:11:31;;;;;;;6.72;3.15;;;25.50;93.30;;;;;;5078388;28;20059;-53
2022/05/23 10:14:14;;;;;;;7.43;4.20;;;25.50;94.60;;;;;;5082331;28;20051;-52
2022/05/23 10:16:47;;;;;;;6.95;3.80;;;25.80;95.00;;;;;;5046659;28;20036;-49
2022/05/23 10:19:31;;;;;;;9.00;4.13;;;26.10;84.00;;;;;;5087576;28;20110;-53
2022/05/23 10:22:09;;;;;;;7.32;4.13;;;26.80;83.00;;;;;;5090206;28;20044;-51
2022/05/23 10:24:39;;;;;;;9.35;4.22;;;27.60;66.60;;;;;;5086318;28;20060;-52
2022/05/23 10:27:15;;;;;;;6.70;2.97;;;27.90;63.30;;;;;;5083478;28;20048;-50
2022/05/23 10:29:51;;;;;;;7.30;2.50;;;28.30;59.30;;;;;;5060284;28;20108;-49
2022/05/23 10:32:46;;;;;;;4.82;2.00;;;28.70;58.90;;;;;;5068214;28;20196;-51
2022/05/23 10:35:37;;;;;;;6.38;2.55;;;28.30;53.00;;;;;;5066070;28;20058;-52
2022/05/23 10:43:52;;;;;;;;;;;28.50;55.70;;;;;;5091098;28;20038;-49
2022/05/23 10:46:18;;;;;;;4.78;2.20;;;28.60;55.20;;;;;;5067079;28;20258;-47
2022/05/23 10:49:21;;;;;;;8.32;5.05;;;28.70;52.30;;;;;;5062261;28;20511;-47
2022/05/23 10:52:19;;;;;;;7.53;5.70;;;28.70;48.20;;;;;;5053266;28;20450;-53
2022/05/23 10:54:59;;;;;;;12.13;8.75;;;29.00;49.50;;;;;;5048206;28;20491;-49
2022/05/23 10:57:55;;;;;;;6.07;2.65;;;28.70;49.30;;;;;;5078969;28;20132;-49
2022/05/23 11:00:36;;;;;;;5.70;2.35;;;28.40;47.70;;;;;;5062756;28;20047;-49
2022/05/23 11:03:32;;;;;;;5.72;4.68;;;28.30;48.30;;;;;;5086855;28;20488;-48
2022/05/23 11:06:34;;;;;;;5.93;3.17;;;28.40;51.60;;;;;;5091820;28;20085;-57
2022/05/23 11:09:06;;;;;;;3.70;1.70;;;28.50;48.70;;;;;;5014507;28;20044;-58
2022/05/23 11:11:49;;;;;;;5.15;2.42;;;28.90;51.70;;;;;;5076574;28;20048;-52
2022/05/23 11:14:20;;;;;;;7.47;2.80;;;29.00;48.90;;;;;;5082522;28;20051;-48
2022/05/23 11:17:11;;;;;;;4.43;1.77;;;29.20;48.80;;;;;;5074123;28;20063;-57
2022/05/23 11:19:47;;;;;;;4.32;2.03;;;29.30;47.20;;;;;;5057974;28;20048;-58
2022/05/23 11:22:23;;;;;;;5.60;2.00;;;29.40;48.80;;;;;;5073578;28;20048;-59
2022/05/23 11:25:03;;;;;;;5.72;1.92;;;29.80;47.80;;;;;;5066210;28;20577;-58
2022/05/23 11:36:09;;;;;;;6.20;2.88;;;28.90;47.70;;;;;;5064305;28;20173;-57
2022/05/23 11:38:47;;;;;;;5.55;3.15;;;28.60;49.10;;;;;;5068249;28;20578;-58
2022/05/23 11:41:30;;;;;;;3.97;1.90;;;28.80;48.50;;;;;;5081140;28;20134;-58
2022/05/23 11:43:56;;;;;;;5.50;3.03;;;29.00;51.00;;;;;;5080208;28;20048;-58
2022/05/23 11:46:46;;;;;;;5.47;3.22;;;29.10;49.20;;;;;;5066826;28;20602;-58
2022/05/23 11:49:40;;;;;;;13.87;12.03;;;29.40;49.10;;;;;;5092618;28;20122;-60
2022/05/23 11:52:53;;;;;;;10.95;6.70;;;29.50;49.80;;;;;;5087929;28;20298;-52
2022/05/23 11:56:01;;;;;;;9.75;6.60;;;29.40;49.90;;;;;;4992496;28;20056;-48
2022/05/23 11:58:48;;;;;;;6.50;4.72;;;29.70;49.50;;;;;;4981366;28;20511;-52
2022/05/23 12:01:14;;;;;;;7.75;4.30;;;29.70;48.30;;;;;;5041523;28;20524;-58
2022/05/23 12:03:52;;;;;;;7.65;4.25;;;30.00;48.20;;;;;;5068504;28;20043;-57
2022/05/23 12:06:23;;;;;;;6.55;3.33;;;30.10;48.10;;;;;;5080446;28;20052;-58
2022/05/23 12:08:58;;;;;;;5.68;2.88;;;29.90;48.90;;;;;;5086268;28;20036;-58
2022/05/23 12:11:25;;;;;;;7.80;3.33;;;29.20;48.40;;;;;;5067182;28;20061;-59
2022/05/23 12:13:58;;;;;;;23.77;18.98;;;28.70;49.90;;;;;;5050141;28;20040;-52
2022/05/23 12:16:30;;;;;;;7.15;3.58;;;28.40;50.20;;;;;;5075315;28;20090;-57
2022/05/23 12:19:08;;;;;;;7.30;4.45;;;28.00;51.40;;;;;;5073961;28;20909;-48
2022/05/23 12:21:34;;;;;;;7.70;5.65;;;27.70;52.30;;;;;;5059661;28;20770;-48
2022/05/23 12:24:31;;;;;;;9.32;4.68;;;27.50;53.40;;;;;;5064955;28;20158;-58
2022/05/23 12:27:00;;;;;;;4.88;2.78;;;27.40;55.70;;;;;;5031806;28;20043;-58
2022/05/23 12:29:34;;;;;;;8.05;4.97;;;27.20;54.90;;;;;;5064733;28;20048;-58
2022/05/23 12:32:26;;;;;;;3.70;1.75;;;27.40;59.70;;;;;;5058986;28;20101;-59
2022/05/23 12:34:56;;;;;;;7.20;5.47;;;27.40;62.80;;;;;;5072792;28;20047;-59
2022/05/23 12:37:34;;;;;;;5.43;3.33;;;27.50;61.40;;;;;;5036001;28;20945;-59
2022/05/23 12:40:53;;;;;;;11.68;9.40;;;27.50;62.90;;;;;;5071939;28;20048;-57
2022/05/23 12:43:43;;;;;;;7.30;4.78;;;27.30;61.60;;;;;;5030594;28;20071;-51
2022/05/23 12:46:22;;;;;;;6.30;4.03;;;27.40;63.20;;;;;;5068384;28;20404;-57
2022/05/23 12:48:57;;;;;;;6.07;2.85;;;27.40;61.40;;;;;;5064245;28;20048;-57
2022/05/23 12:51:34;;;;;;;5.20;2.88;;;27.20;68.50;;;;;;5081463;28;20059;-57
2022/05/23 12:54:16;;;;;;;6.50;2.38;;;27.10;61.40;;;;;;5089093;28;20051;-57
2022/05/23 12:56:46;;;;;;;12.15;5.78;;;26.80;74.50;;;;;;5080185;28;20787;-58
2022/05/23 12:59:35;;;;;;;9.37;5.43;;;26.50;68.50;;;;;;5080362;28;20400;-59
2022/05/23 13:02:06;;;;;;;6.93;2.55;;;26.50;76.80;;;;;;5059584;28;20355;-59
2022/05/23 13:04:49;;;;;;;5.95;2.38;;;26.30;78.50;;;;;;5062412;28;20056;-57
2022/05/23 13:07:36;;;;;;;8.00;5.57;;;26.20;83.70;;;;;;5092962;28;20249;-58
2022/05/23 13:10:08;;;;;;;9.80;6.40;;;26.30;95.60;;;;;;5084781;28;20096;-57
2022/05/23 13:12:45;;;;;;;5.75;3.63;;;26.30;93.70;;;;;;5062498;28;20048;-57
2022/05/23 13:15:27;;;;;;;8.35;3.33;;;26.40;94.20;;;;;;5051194;28;21000;-57
2022/05/23 13:22:05;;;;;;;19.92;16.90;;;26.30;93.20;;;;;;5063671;28;20496;-59
2022/05/23 13:23:26;;;;;;;22.52;20.08;;;26.40;93.30;;;;;;5088588;28;20048;-54
2022/05/23 13:25:52;;;;;;;20.80;16.52;;;26.30;95.40;;;;;;5074116;28;20132;-55
2022/05/23 13:28:20;;;;;;;12.13;8.57;;;26.20;93.50;;;;;;5066505;28;20036;-54
2022/05/23 13:30:52;;;;;;;7.63;3.92;;;26.20;94.40;;;;;;5080393;28;20076;-55
2022/05/23 13:33:26;;;;;;;5.28;4.05;;;26.00;93.70;;;;;;5082981;28;20040;-52
2022/05/23 13:36:01;;;;;;;7.45;5.03;;;25.90;95.80;;;;;;5085877;28;20050;-57
2022/05/23 13:38:34;;;;;;;7.75;6.03;;;25.80;98.40;;;;;;5048214;28;20051;-53
2022/05/23 13:41:03;;;;;;;10.10;8.23;;;25.80;97.10;;;;;;5064028;28;20059;-52
2022/05/23 13:43:31;;;;;;;10.95;9.50;;;25.80;97.40;;;;;;5093832;28;20555;-54
2022/05/23 13:46:18;;;;;;;20.15;15.35;;;25.50;95.50;;;;;;5085415;28;20040;-55
2022/05/23 13:49:10;;;;;;;11.32;4.97;;;25.50;99.90;;;;;;5063574;28;20045;-55
2022/05/23 13:51:39;;;;;;;8.80;6.32;;;25.40;97.80;;;;;;5083575;28;20631;-54
2022/05/23 13:54:12;;;;;;;7.97;5.30;;;25.60;98.10;;;;;;5065818;28;20591;-59
2022/05/23 13:56:42;;;;;;;7.70;4.00;;;25.60;98.90;;;;;;5065252;28;20126;-59
2022/05/23 13:59:30;;;;;;;7.50;5.60;;;25.70;97.70;;;;;;5059758;28;20052;-59
2022/05/23 14:02:13;;;;;;;11.85;5.72;;;25.90;99.20;;;;;;5065909;28;20052;-59
2022/05/23 14:04:42;;;;;;;5.88;4.07;;;26.00;95.60;;;;;;5081065;28;20692;-59
2022/05/23 14:07:17;;;;;;;5.38;4.43;;;25.90;96.80;;;;;;5058790;28;20105;-59
2022/05/23 14:09:46;;;;;;;10.43;5.97;;;26.00;96.90;;;;;;5078351;28;20505;-53
2022/05/23 14:12:18;;;;;;;14.00;9.07;;;26.10;95.70;;;;;;5042361;28;20180;-49
2022/05/23 14:14:54;;;;;;;6.40;4.05;;;26.10;97.30;;;;;;5066859;28;21073;-47
2022/05/23 14:17:29;;;;;;;7.85;4.13;;;25.90;97.90;;;;;;5051274;28;20043;-52
2022/05/23 14:20:11;;;;;;;7.20;4.60;;;25.80;97.60;;;;;;5088253;28;20512;-49
2022/05/23 14:22:39;;;;;;;9.10;4.07;;;25.50;99.40;;;;;;5087607;28;20506;-49
2022/05/23 14:25:19;;;;;;;7.90;4.00;;;25.50;99.90;;;;;;5098381;28;20097;-59